Time;durP1;ratioP1;P1;durP2;ratioP2;P2;SDS_P1;SDS_P2;PMS_P1;PMS_P2;Temp;Humidity;BMP_temperature;BMP_pressure;BME280_temperature;BME280_humidity;BME280_pressure;Samples;Min_cycle;Max_cycle;Signal;HPM_P1;HPM_P2
2023/02/25 00:13:55;;;;;;;3.92;2.40;;;;;;;3.04;72.74;98110.25;30890301;28;96963;-67
2023/02/25 00:28:56;;;;;;;2.53;1.83;;;;;;;2.86;72.93;98091.28;30977310;28;97195;-68
2023/02/25 00:43:59;;;;;;;3.22;1.85;;;;;;;2.65;73.38;98062.94;30976358;28;96652;-69
2023/02/25 00:58:59;;;;;;;2.85;1.80;;;;;;;2.67;74.22;98051.28;30983810;28;96672;-69
2023/02/25 01:14:07;;;;;;;3.70;2.10;;;;;;;2.63;74.21;98023.69;30995438;28;96977;-68
2023/02/25 01:29:09;;;;;;;3.25;2.08;;;;;;;2.61;74.42;98014.34;30993769;28;97153;-69
2023/02/25 01:44:09;;;;;;;4.05;2.60;;;;;;;2.52;74.57;97997.81;30993045;28;97293;-68
2023/02/25 01:59:11;;;;;;;4.85;3.35;;;;;;;2.57;74.98;97987.59;30991159;28;97033;-69
2023/02/25 02:14:24;;;;;;;5.78;3.70;;;;;;;2.74;74.43;97982.25;30989095;28;97167;-68
2023/02/25 02:29:24;;;;;;;6.38;4.20;;;;;;;2.79;75.11;97979.88;30988838;28;96894;-69
2023/02/25 02:44:32;;;;;;;5.95;3.38;;;;;;;2.95;74.08;97963.19;30987349;28;96588;-69
2023/02/25 02:59:41;;;;;;;6.03;3.90;;;;;;;2.98;73.99;97968.91;30984825;28;97305;-69
2023/02/25 03:14:42;;;;;;;5.47;2.88;;;;;;;3.18;73.74;97961.34;30984105;28;97332;-69
2023/02/25 03:29:42;;;;;;;1.20;1.02;;;;;;;2.85;72.69;97981.81;30982194;28;96698;-68
2023/02/25 03:44:49;;;;;;;5.47;2.72;;;;;;;2.31;73.25;97983.47;30981894;28;97247;-69
2023/02/25 03:59:55;;;;;;;4.18;2.30;;;;;;;1.96;73.54;97963.75;30978812;28;97127;-68
2023/02/25 04:14:55;;;;;;;3.72;2.33;;;;;;;1.90;74.49;97965.25;30977799;28;97148;-68
2023/02/25 04:29:55;;;;;;;5.82;2.13;;;;;;;2.11;74.19;97955.97;30979682;28;96610;-68
2023/02/25 04:44:56;;;;;;;4.28;1.92;;;;;;;2.15;73.47;97931.00;30920974;28;97957;-69
2023/02/25 04:59:56;;;;;;;3.55;1.45;;;;;;;2.13;74.06;97920.66;30915024;28;98901;-67
2023/02/25 05:14:57;;;;;;;2.83;1.48;;;;;;;2.54;72.87;97915.16;30926768;28;97554;-69
2023/02/25 05:29:57;;;;;;;3.20;1.08;;;;;;;2.71;72.53;97910.59;30916921;28;96621;-69
2023/02/25 05:44:57;;;;;;;2.75;1.20;;;;;;;2.70;72.25;97913.41;30991987;28;96712;-71
2023/02/25 05:59:58;;;;;;;4.63;1.63;;;;;;;2.61;72.65;97935.47;30985697;28;96973;-68
2023/02/25 06:14:59;;;;;;;3.90;1.47;;;;;;;2.63;72.65;97934.31;30979993;28;97428;-69
2023/02/25 06:30:01;;;;;;;1.38;1.15;;;;;;;2.81;72.49;97936.66;30913478;28;97103;-68
2023/02/25 06:45:01;;;;;;;3.30;1.38;;;;;;;2.93;72.23;97963.34;30855549;28;96660;-67
2023/02/25 07:00:04;;;;;;;2.22;1.65;;;;;;;2.95;72.59;97985.03;30848769;28;97010;-68
2023/02/25 07:15:05;;;;;;;1.02;0.80;;;;;;;2.92;72.45;97997.72;30857802;28;96762;-68
2023/02/25 07:30:06;;;;;;;2.90;1.20;;;;;;;2.88;73.10;97995.47;30859863;28;96786;-67
2023/02/25 07:45:09;;;;;;;2.03;1.13;;;;;;;2.84;72.73;97996.81;30857986;28;97554;-67
2023/02/25 08:00:10;;;;;;;3.38;1.55;;;;;;;2.76;72.94;98003.91;30882501;28;97439;-68
2023/02/25 08:15:10;;;;;;;1.38;1.05;;;;;;;2.88;73.45;98003.34;30902689;28;97089;-64
2023/02/25 08:30:11;;;;;;;2.60;1.40;;;;;;;2.99;73.17;98009.19;30861081;28;97242;-65
2023/02/25 08:45:11;;;;;;;2.40;1.50;;;;;;;2.91;72.88;98017.94;30963243;28;96695;-70
2023/02/25 09:00:15;;;;;;;1.60;0.88;;;;;;;2.95;73.65;98010.53;30904421;28;97233;-72
2023/02/25 09:15:16;;;;;;;2.03;1.27;;;;;;;2.82;73.70;98045.28;30875748;28;97230;-73
2023/02/25 09:30:16;;;;;;;1.23;1.08;;;;;;;2.83;73.69;98054.81;30866972;28;98189;-69
2023/02/25 09:45:22;;;;;;;1.90;1.20;;;;;;;3.03;73.86;98068.34;30915653;28;97220;-71
2023/02/25 10:00:22;;;;;;;2.65;1.58;;;;;;;3.12;73.69;98093.59;30973549;28;96960;-68
2023/02/25 10:15:31;;;;;;;1.85;1.42;;;;;;;3.77;73.00;98109.09;30967149;28;97658;-68
2023/02/25 10:30:51;;;;;;;2.53;2.17;;;;;;;5.99;72.15;98119.50;30936812;28;97000;-69
2023/02/25 10:46:04;;;;;;;2.63;1.90;;;;;;;10.77;60.30;98106.03;30906483;28;97966;-68
2023/02/25 11:01:21;;;;;;;2.43;1.30;;;;;;;12.90;49.43;98146.50;30909340;28;97686;-70
2023/02/25 11:16:22;;;;;;;1.17;0.87;;;;;;;12.40;51.45;98139.84;30856020;28;97140;-72
2023/02/25 11:31:29;;;;;;;1.80;0.93;;;;;;;6.89;56.91;98162.00;30894738;28;97613;-74
2023/02/25 11:46:32;;;;;;;2.50;1.42;;;;;;;5.92;60.79;98180.22;30860440;28;97504;-68
2023/02/25 12:01:38;;;;;;;3.23;1.67;;;;;;;5.16;62.48;98198.28;30924290;28;97069;-77
2023/02/25 12:16:45;;;;;;;2.75;1.33;;;;;;;5.09;63.46;98204.28;30989177;28;96588;-74
2023/02/25 12:31:45;;;;;;;4.47;1.77;;;;;;;4.46;64.42;98239.94;30991836;28;97374;-78
2023/02/25 12:47:07;;;;;;;2.28;1.50;;;;;;;4.43;66.36;98253.47;30983307;28;97246;-70
2023/02/25 13:02:41;;;;;;;2.80;1.35;;;;;;;4.02;66.73;98265.97;30992622;28;97018;-80
2023/02/25 13:18:06;;;;;;;3.13;1.40;;;;;;;3.48;67.65;98279.13;30922824;28;97397;-77
2023/02/25 13:33:26;;;;;;;1.50;1.00;;;;;;;3.41;68.87;98304.50;30934235;28;97515;-68
2023/02/25 13:48:32;;;;;;;2.20;1.50;;;;;;;3.35;69.24;98322.59;30896016;28;96740;-73
2023/02/25 14:03:57;;;;;;;1.58;1.10;;;;;;;3.08;70.02;98351.97;30949280;28;96990;-80
2023/02/25 14:19:25;;;;;;;1.67;1.10;;;;;;;3.27;70.62;98371.78;30946100;28;97307;-70
2023/02/25 14:34:44;;;;;;;2.20;1.17;;;;;;;3.33;70.45;98387.75;30852612;28;97223;-73
2023/02/25 14:50:12;;;;;;;1.40;1.17;;;;;;;3.27;70.51;98430.53;30837855;28;97824;-73
2023/02/25 15:05:34;;;;;;;2.25;1.50;;;;;;;3.26;70.22;98455.19;30851246;28;96720;-73
2023/02/25 15:20:40;;;;;;;2.05;1.30;;;;;;;3.06;70.38;98473.13;30846345;28;97259;-73
2023/02/25 15:35:40;;;;;;;2.67;1.67;;;;;;;2.76;71.01;98499.09;30846192;28;97285;-73
2023/02/25 15:50:41;;;;;;;3.92;1.73;;;;;;;2.49;71.54;98516.75;30845634;28;97533;-72
2023/02/25 16:05:43;;;;;;;2.88;1.67;;;;;;;2.21;71.90;98555.56;30847424;28;97119;-72
2023/02/25 16:20:57;;;;;;;3.33;1.88;;;;;;;1.92;72.77;98576.91;30843138;28;96999;-74
2023/02/25 16:36:08;;;;;;;3.35;1.90;;;;;;;1.66;73.26;98596.91;30840019;28;97382;-75
2023/02/25 16:51:18;;;;;;;3.00;2.05;;;;;;;1.54;74.13;98629.63;30885953;28;97496;-76
2023/02/25 17:06:20;;;;;;;3.65;2.35;;;;;;;1.41;74.44;98664.13;30963580;28;96841;-72
2023/02/25 17:21:28;;;;;;;3.65;1.75;;;;;;;1.34;74.87;98698.00;30962845;28;97437;-76
2023/02/25 17:36:33;;;;;;;4.40;1.75;;;;;;;1.27;75.14;98715.31;30963179;28;97614;-76
2023/02/25 17:51:37;;;;;;;3.72;1.85;;;;;;;1.25;75.34;98743.47;30981370;28;97358;-75
2023/02/25 18:06:39;;;;;;;;;;;;;;;1.16;75.39;98757.47;30978614;28;97246;-75
2023/02/25 18:21:41;;;;;;;1.92;1.67;;;;;;;1.11;75.41;98778.91;30962837;28;97166;-71
2023/02/25 18:36:43;;;;;;;4.25;2.40;;;;;;;1.09;76.05;98801.81;30973984;28;97042;-71
2023/02/25 18:51:43;;;;;;;5.30;2.63;;;;;;;1.09;76.37;98816.72;30974654;28;97407;-76
2023/02/25 19:06:45;;;;;;;4.20;2.47;;;;;;;1.12;76.16;98834.78;30974699;28;96637;-78
2023/02/25 19:21:46;;;;;;;5.53;3.42;;;;;;;1.12;76.43;98869.72;30972647;28;97479;-74
2023/02/25 19:36:46;;;;;;;3.90;2.90;;;;;;;1.16;75.92;98896.50;30976142;28;97257;-75
2023/02/25 19:51:47;;;;;;;6.15;4.13;;;;;;;1.10;76.33;98924.13;30979536;28;96674;-79
2023/02/25 20:06:47;;;;;;;6.70;3.40;;;;;;;1.16;76.17;98946.31;30968575;28;97441;-79
2023/02/25 20:21:48;;;;;;;7.32;2.67;;;;;;;1.25;76.00;98963.84;30965104;28;97300;-77
2023/02/25 20:37:01;;;;;;;3.53;1.98;;;;;;;1.21;75.63;98983.47;30966496;28;97076;-73
2023/02/25 20:52:02;;;;;;;5.47;1.98;;;;;;;1.15;75.53;99015.53;30966749;28;98252;-79
2023/02/25 21:07:03;;;;;;;5.82;2.33;;;;;;;1.05;75.74;99038.28;30967293;28;96762;-78
2023/02/25 21:22:04;;;;;;;4.32;1.92;;;;;;;0.95;75.29;99046.16;30980992;28;97775;-76
2023/02/25 21:37:04;;;;;;;5.57;2.22;;;;;;;1.00;75.38;99070.19;30982656;28;96851;-78
2023/02/25 21:52:05;;;;;;;3.25;1.80;;;;;;;0.93;74.40;99077.75;30980669;28;96922;-83
2023/02/25 22:07:05;;;;;;;5.78;2.55;;;;;;;0.90;74.67;99106.03;30980677;28;96989;-75
2023/02/25 22:22:06;;;;;;;4.68;2.50;;;;;;;0.75;74.10;99122.16;30902027;28;97221;-78
2023/02/25 22:37:06;;;;;;;4.28;2.00;;;;;;;0.69;74.13;99140.22;30865714;28;97047;-84
2023/02/25 22:52:07;;;;;;;4.55;2.20;;;;;;;0.68;74.60;99157.72;30864726;28;97124;-81
2023/02/25 23:07:07;;;;;;;3.05;1.67;;;;;;;0.58;74.45;99173.41;30863289;28;96636;-82
2023/02/25 23:22:08;;;;;;;4.15;2.10;;;;;;;0.46;74.20;99198.03;30861158;28;96781;-81
2023/02/25 23:37:08;;;;;;;3.53;2.33;;;;;;;0.38;74.64;99226.69;30859689;28;96619;-80
2023/02/25 23:52:09;;;;;;;3.47;2.15;;;;;;;0.26;73.92;99239.84;30979512;28;97308;-80
